Terminal Aerodrome Forecast
Issued by NWS

Home | Current Version | Previous Version | Text Only | Print | Product List | Glossary On
Versions: 1 2 3 4 5 6 7 8 9 10 11 12 13 14 15 16 17 18 19 20
184
FTUS44 KBMX 222340
TAFEET
TAF
KEET 222340Z 2300/2324 VRB04KT 4SM -RA VCTS SCT020 BKN040CB OVC100
     FM230400 VRB03KT 4SM -SHRA BKN012 OVC100
      TEMPO 2311/2314 2SM -SHRA BR BKN007 OVC080
     FM231600 25005KT 6SM -SHRA VCTS OVC025CB=

USA.gov is the U.S. government's official web portal to all federal, state and local government web resources and services.